sensor_id;sensor_type;location;lat;lon;timestamp;temperature;humidity
76293;DHT22;67256;51.154;4.164;2023-04-21T00:00:46;10.00;63.30
76293;DHT22;67256;51.154;4.164;2023-04-21T00:03:12;10.00;63.40
76293;DHT22;67256;51.154;4.164;2023-04-21T00:05:37;9.90;64.00
76293;DHT22;67256;51.154;4.164;2023-04-21T00:08:07;9.90;63.80
76293;DHT22;67256;51.154;4.164;2023-04-21T00:10:33;10.00;63.50
76293;DHT22;67256;51.154;4.164;2023-04-21T00:12:58;10.00;63.50
76293;DHT22;67256;51.154;4.164;2023-04-21T00:15:24;10.00;63.50
76293;DHT22;67256;51.154;4.164;2023-04-21T00:17:50;10.00;63.60
76293;DHT22;67256;51.154;4.164;2023-04-21T00:20:17;10.00;63.70
76293;DHT22;67256;51.154;4.164;2023-04-21T00:22:42;10.00;63.90
76293;DHT22;67256;51.154;4.164;2023-04-21T00:25:08;9.90;64.10
76293;DHT22;67256;51.154;4.164;2023-04-21T00:27:34;9.90;64.20
76293;DHT22;67256;51.154;4.164;2023-04-21T00:30:00;9.90;64.30
76293;DHT22;67256;51.154;4.164;2023-04-21T00:32:26;9.90;64.10
76293;DHT22;67256;51.154;4.164;2023-04-21T00:34:51;9.80;64.70
76293;DHT22;67256;51.154;4.164;2023-04-21T00:37:17;9.80;64.60
76293;DHT22;67256;51.154;4.164;2023-04-21T00:39:42;10.00;64.40
76293;DHT22;67256;51.154;4.164;2023-04-21T00:42:08;10.00;64.10
76293;DHT22;67256;51.154;4.164;2023-04-21T00:44:34;10.00;64.00
76293;DHT22;67256;51.154;4.164;2023-04-21T00:47:00;10.00;64.10
76293;DHT22;67256;51.154;4.164;2023-04-21T00:49:26;10.10;64.10
76293;DHT22;67256;51.154;4.164;2023-04-21T00:51:52;10.00;64.10
76293;DHT22;67256;51.154;4.164;2023-04-21T00:54:18;10.00;64.30
76293;DHT22;67256;51.154;4.164;2023-04-21T00:56:44;10.10;64.70
76293;DHT22;67256;51.154;4.164;2023-04-21T00:59:10;10.20;64.30
76293;DHT22;67256;51.154;4.164;2023-04-21T01:01:37;10.20;64.20
76293;DHT22;67256;51.154;4.164;2023-04-21T01:04:04;10.10;64.70
76293;DHT22;67256;51.154;4.164;2023-04-21T01:06:31;10.10;64.70
76293;DHT22;67256;51.154;4.164;2023-04-21T01:08:57;10.10;65.20
76293;DHT22;67256;51.154;4.164;2023-04-21T01:11:23;10.20;64.50
76293;DHT22;67256;51.154;4.164;2023-04-21T01:13:51;10.30;64.30
76293;DHT22;67256;51.154;4.164;2023-04-21T01:16:19;10.40;64.00
76293;DHT22;67256;51.154;4.164;2023-04-21T01:18:46;10.40;64.00
76293;DHT22;67256;51.154;4.164;2023-04-21T01:21:12;10.40;64.10
76293;DHT22;67256;51.154;4.164;2023-04-21T01:23:42;10.40;63.90
76293;DHT22;67256;51.154;4.164;2023-04-21T01:26:08;10.40;64.30
76293;DHT22;67256;51.154;4.164;2023-04-21T01:28:33;10.40;64.50
76293;DHT22;67256;51.154;4.164;2023-04-21T01:30:59;10.30;64.90
76293;DHT22;67256;51.154;4.164;2023-04-21T01:33:25;10.20;65.60
76293;DHT22;67256;51.154;4.164;2023-04-21T01:35:51;10.10;66.30
76293;DHT22;67256;51.154;4.164;2023-04-21T01:38:17;10.20;66.00
76293;DHT22;67256;51.154;4.164;2023-04-21T01:40:45;10.20;66.20
76293;DHT22;67256;51.154;4.164;2023-04-21T01:43:13;10.20;66.60
76293;DHT22;67256;51.154;4.164;2023-04-21T01:45:38;10.10;67.50
76293;DHT22;67256;51.154;4.164;2023-04-21T01:48:04;10.00;68.10
76293;DHT22;67256;51.154;4.164;2023-04-21T01:50:30;9.90;68.60
76293;DHT22;67256;51.154;4.164;2023-04-21T01:52:56;10.00;68.80
76293;DHT22;67256;51.154;4.164;2023-04-21T01:55:21;10.00;69.00
76293;DHT22;67256;51.154;4.164;2023-04-21T01:57:47;9.90;69.80
76293;DHT22;67256;51.154;4.164;2023-04-21T02:00:13;9.90;70.20
76293;DHT22;67256;51.154;4.164;2023-04-21T02:02:39;9.90;70.30
76293;DHT22;67256;51.154;4.164;2023-04-21T02:05:05;9.90;70.50
76293;DHT22;67256;51.154;4.164;2023-04-21T02:07:31;10.00;70.50
76293;DHT22;67256;51.154;4.164;2023-04-21T02:09:56;10.00;70.40
76293;DHT22;67256;51.154;4.164;2023-04-21T02:12:22;10.10;70.50
76293;DHT22;67256;51.154;4.164;2023-04-21T02:14:48;10.20;70.10
76293;DHT22;67256;51.154;4.164;2023-04-21T02:17:14;10.20;69.90
76293;DHT22;67256;51.154;4.164;2023-04-21T02:19:40;10.20;70.60
76293;DHT22;67256;51.154;4.164;2023-04-21T02:22:06;10.10;71.00
76293;DHT22;67256;51.154;4.164;2023-04-21T02:24:33;10.20;70.90
76293;DHT22;67256;51.154;4.164;2023-04-21T02:26:59;10.10;71.10
76293;DHT22;67256;51.154;4.164;2023-04-21T02:29:24;10.10;71.80
76293;DHT22;67256;51.154;4.164;2023-04-21T02:31:50;10.00;72.30
76293;DHT22;67256;51.154;4.164;2023-04-21T02:34:16;10.20;72.20
76293;DHT22;67256;51.154;4.164;2023-04-21T02:36:41;10.20;71.50
76293;DHT22;67256;51.154;4.164;2023-04-21T02:39:07;10.30;71.40
76293;DHT22;67256;51.154;4.164;2023-04-21T02:41:33;10.30;71.80
76293;DHT22;67256;51.154;4.164;2023-04-21T02:43:58;10.30;71.70
76293;DHT22;67256;51.154;4.164;2023-04-21T02:46:24;10.30;72.00
76293;DHT22;67256;51.154;4.164;2023-04-21T02:48:50;10.40;71.80
76293;DHT22;67256;51.154;4.164;2023-04-21T02:51:16;10.40;72.10
76293;DHT22;67256;51.154;4.164;2023-04-21T02:53:42;10.40;72.30
76293;DHT22;67256;51.154;4.164;2023-04-21T02:56:08;10.40;72.30
76293;DHT22;67256;51.154;4.164;2023-04-21T02:58:35;10.40;72.20
76293;DHT22;67256;51.154;4.164;2023-04-21T03:01:01;10.40;72.60
76293;DHT22;67256;51.154;4.164;2023-04-21T03:03:28;10.40;72.70
76293;DHT22;67256;51.154;4.164;2023-04-21T03:05:58;10.50;72.80
76293;DHT22;67256;51.154;4.164;2023-04-21T03:08:24;10.50;72.90
76293;DHT22;67256;51.154;4.164;2023-04-21T03:10:50;10.40;72.80
76293;DHT22;67256;51.154;4.164;2023-04-21T03:13:16;10.40;73.60
76293;DHT22;67256;51.154;4.164;2023-04-21T03:15:42;10.30;73.90
76293;DHT22;67256;51.154;4.164;2023-04-21T03:18:08;10.20;74.10
76293;DHT22;67256;51.154;4.164;2023-04-21T03:20:34;10.10;74.50
76293;DHT22;67256;51.154;4.164;2023-04-21T03:22:59;10.10;75.00
76293;DHT22;67256;51.154;4.164;2023-04-21T03:25:25;10.00;75.50
76293;DHT22;67256;51.154;4.164;2023-04-21T03:27:54;10.00;75.40
76293;DHT22;67256;51.154;4.164;2023-04-21T03:30:21;10.00;75.30
76293;DHT22;67256;51.154;4.164;2023-04-21T03:32:47;10.10;75.00
76293;DHT22;67256;51.154;4.164;2023-04-21T03:35:12;10.10;75.00
76293;DHT22;67256;51.154;4.164;2023-04-21T03:37:38;10.10;75.00
76293;DHT22;67256;51.154;4.164;2023-04-21T03:40:05;10.20;75.00
76293;DHT22;67256;51.154;4.164;2023-04-21T03:42:31;10.10;74.90
76293;DHT22;67256;51.154;4.164;2023-04-21T03:45:01;10.20;74.80
76293;DHT22;67256;51.154;4.164;2023-04-21T03:47:27;10.30;74.80
76293;DHT22;67256;51.154;4.164;2023-04-21T03:49:53;10.30;74.30
76293;DHT22;67256;51.154;4.164;2023-04-21T03:52:19;10.30;74.20
76293;DHT22;67256;51.154;4.164;2023-04-21T03:54:44;10.40;74.00
76293;DHT22;67256;51.154;4.164;2023-04-21T03:57:10;10.40;74.00
76293;DHT22;67256;51.154;4.164;2023-04-21T03:59:36;10.30;74.00
76293;DHT22;67256;51.154;4.164;2023-04-21T04:02:02;10.30;74.30
76293;DHT22;67256;51.154;4.164;2023-04-21T04:04:27;10.30;74.40
76293;DHT22;67256;51.154;4.164;2023-04-21T04:06:53;10.30;74.40
76293;DHT22;67256;51.154;4.164;2023-04-21T04:09:19;10.30;74.30
76293;DHT22;67256;51.154;4.164;2023-04-21T04:11:44;10.20;74.50
76293;DHT22;67256;51.154;4.164;2023-04-21T04:14:10;10.20;74.70
76293;DHT22;67256;51.154;4.164;2023-04-21T04:16:36;10.10;74.90
76293;DHT22;67256;51.154;4.164;2023-04-21T04:19:02;10.10;75.10
76293;DHT22;67256;51.154;4.164;2023-04-21T04:21:28;10.20;74.80
76293;DHT22;67256;51.154;4.164;2023-04-21T04:23:54;10.20;74.60
76293;DHT22;67256;51.154;4.164;2023-04-21T04:26:20;10.20;74.70
76293;DHT22;67256;51.154;4.164;2023-04-21T04:28:52;10.10;74.90
76293;DHT22;67256;51.154;4.164;2023-04-21T04:31:23;10.10;75.10
76293;DHT22;67256;51.154;4.164;2023-04-21T04:33:52;10.00;75.40
76293;DHT22;67256;51.154;4.164;2023-04-21T04:36:18;10.10;75.20
76293;DHT22;67256;51.154;4.164;2023-04-21T04:38:44;10.20;74.60
76293;DHT22;67256;51.154;4.164;2023-04-21T04:41:10;10.20;74.50
76293;DHT22;67256;51.154;4.164;2023-04-21T04:43:37;10.20;74.20
76293;DHT22;67256;51.154;4.164;2023-04-21T04:46:04;10.30;74.00
76293;DHT22;67256;51.154;4.164;2023-04-21T04:48:30;10.20;74.00
76293;DHT22;67256;51.154;4.164;2023-04-21T04:50:56;10.20;74.10
76293;DHT22;67256;51.154;4.164;2023-04-21T04:53:22;10.10;74.30
76293;DHT22;67256;51.154;4.164;2023-04-21T04:55:47;10.10;74.30
76293;DHT22;67256;51.154;4.164;2023-04-21T04:58:14;10.10;74.40
76293;DHT22;67256;51.154;4.164;2023-04-21T05:00:39;10.00;74.20
76293;DHT22;67256;51.154;4.164;2023-04-21T05:03:05;10.00;74.40
76293;DHT22;67256;51.154;4.164;2023-04-21T05:05:31;10.00;74.30
76293;DHT22;67256;51.154;4.164;2023-04-21T05:07:57;9.90;75.10
76293;DHT22;67256;51.154;4.164;2023-04-21T05:10:23;10.00;74.90
76293;DHT22;67256;51.154;4.164;2023-04-21T05:12:49;10.00;74.90
76293;DHT22;67256;51.154;4.164;2023-04-21T05:15:16;10.00;74.60
76293;DHT22;67256;51.154;4.164;2023-04-21T05:17:41;10.00;74.80
76293;DHT22;67256;51.154;4.164;2023-04-21T05:20:07;10.10;74.90
76293;DHT22;67256;51.154;4.164;2023-04-21T05:22:40;10.10;74.70
76293;DHT22;67256;51.154;4.164;2023-04-21T05:25:06;10.00;75.20
76293;DHT22;67256;51.154;4.164;2023-04-21T05:27:32;9.90;75.60
76293;DHT22;67256;51.154;4.164;2023-04-21T05:30:01;10.00;75.40
76293;DHT22;67256;51.154;4.164;2023-04-21T05:32:26;10.00;75.50
76293;DHT22;67256;51.154;4.164;2023-04-21T05:34:53;10.10;75.40
76293;DHT22;67256;51.154;4.164;2023-04-21T05:37:19;10.10;75.10
76293;DHT22;67256;51.154;4.164;2023-04-21T05:39:45;10.20;74.90
76293;DHT22;67256;51.154;4.164;2023-04-21T05:42:11;10.10;75.40
76293;DHT22;67256;51.154;4.164;2023-04-21T05:44:37;10.20;75.20
76293;DHT22;67256;51.154;4.164;2023-04-21T05:47:04;10.10;75.40
76293;DHT22;67256;51.154;4.164;2023-04-21T05:49:30;10.20;75.60
76293;DHT22;67256;51.154;4.164;2023-04-21T05:51:56;10.20;75.20
76293;DHT22;67256;51.154;4.164;2023-04-21T05:54:22;10.20;75.40
76293;DHT22;67256;51.154;4.164;2023-04-21T05:56:47;10.30;75.10
76293;DHT22;67256;51.154;4.164;2023-04-21T05:59:15;10.30;75.30
76293;DHT22;67256;51.154;4.164;2023-04-21T06:01:41;10.30;75.40
76293;DHT22;67256;51.154;4.164;2023-04-21T06:04:07;10.30;75.60
76293;DHT22;67256;51.154;4.164;2023-04-21T06:06:33;10.30;75.50
76293;DHT22;67256;51.154;4.164;2023-04-21T06:08:58;10.50;75.00
76293;DHT22;67256;51.154;4.164;2023-04-21T06:11:24;10.60;74.60
76293;DHT22;67256;51.154;4.164;2023-04-21T06:13:50;10.60;74.40
76293;DHT22;67256;51.154;4.164;2023-04-21T06:16:18;10.50;74.80
76293;DHT22;67256;51.154;4.164;2023-04-21T06:18:44;10.40;74.90
76293;DHT22;67256;51.154;4.164;2023-04-21T06:21:10;10.40;75.10
76293;DHT22;67256;51.154;4.164;2023-04-21T06:23:35;10.40;75.20
76293;DHT22;67256;51.154;4.164;2023-04-21T06:26:03;10.30;75.50
76293;DHT22;67256;51.154;4.164;2023-04-21T06:28:33;10.40;75.80
76293;DHT22;67256;51.154;4.164;2023-04-21T06:30:59;10.40;75.30
76293;DHT22;67256;51.154;4.164;2023-04-21T06:33:26;10.40;75.30
76293;DHT22;67256;51.154;4.164;2023-04-21T06:35:52;10.40;75.30
76293;DHT22;67256;51.154;4.164;2023-04-21T06:38:18;10.40;75.40
76293;DHT22;67256;51.154;4.164;2023-04-21T06:40:44;10.40;75.00
76293;DHT22;67256;51.154;4.164;2023-04-21T06:43:10;10.30;74.90
76293;DHT22;67256;51.154;4.164;2023-04-21T06:45:35;10.40;75.00
76293;DHT22;67256;51.154;4.164;2023-04-21T06:48:01;10.30;75.00
76293;DHT22;67256;51.154;4.164;2023-04-21T06:50:27;10.40;75.30
76293;DHT22;67256;51.154;4.164;2023-04-21T06:52:53;10.40;74.70
76293;DHT22;67256;51.154;4.164;2023-04-21T06:55:18;10.30;75.20
76293;DHT22;67256;51.154;4.164;2023-04-21T06:57:44;10.40;74.80
76293;DHT22;67256;51.154;4.164;2023-04-21T07:00:11;10.50;74.60
76293;DHT22;67256;51.154;4.164;2023-04-21T07:02:36;10.50;74.40
76293;DHT22;67256;51.154;4.164;2023-04-21T07:05:02;10.50;74.20
76293;DHT22;67256;51.154;4.164;2023-04-21T07:07:28;10.50;74.50
76293;DHT22;67256;51.154;4.164;2023-04-21T07:09:54;10.50;74.50
76293;DHT22;67256;51.154;4.164;2023-04-21T07:12:20;10.60;74.50
76293;DHT22;67256;51.154;4.164;2023-04-21T07:14:46;10.60;74.00
76293;DHT22;67256;51.154;4.164;2023-04-21T07:17:11;10.70;73.50
76293;DHT22;67256;51.154;4.164;2023-04-21T07:19:38;10.70;73.70
76293;DHT22;67256;51.154;4.164;2023-04-21T07:22:04;10.70;73.50
76293;DHT22;67256;51.154;4.164;2023-04-21T07:24:30;10.60;73.20
76293;DHT22;67256;51.154;4.164;2023-04-21T07:26:56;10.50;73.80
76293;DHT22;67256;51.154;4.164;2023-04-21T07:29:22;10.50;73.90
76293;DHT22;67256;51.154;4.164;2023-04-21T07:31:48;10.50;73.80
76293;DHT22;67256;51.154;4.164;2023-04-21T07:34:14;10.50;73.60
76293;DHT22;67256;51.154;4.164;2023-04-21T07:36:40;10.50;73.30
76293;DHT22;67256;51.154;4.164;2023-04-21T07:39:06;10.60;73.30
76293;DHT22;67256;51.154;4.164;2023-04-21T07:41:32;10.70;73.10
76293;DHT22;67256;51.154;4.164;2023-04-21T07:43:57;10.80;73.50
76293;DHT22;67256;51.154;4.164;2023-04-21T07:46:23;10.80;72.50
76293;DHT22;67256;51.154;4.164;2023-04-21T07:48:55;10.80;72.90
76293;DHT22;67256;51.154;4.164;2023-04-21T07:51:21;10.80;73.00
76293;DHT22;67256;51.154;4.164;2023-04-21T07:53:47;10.80;72.80
76293;DHT22;67256;51.154;4.164;2023-04-21T07:56:13;10.90;72.60
76293;DHT22;67256;51.154;4.164;2023-04-21T07:58:39;10.80;72.40
76293;DHT22;67256;51.154;4.164;2023-04-21T08:01:04;10.80;72.80
76293;DHT22;67256;51.154;4.164;2023-04-21T08:03:30;10.90;72.70
76293;DHT22;67256;51.154;4.164;2023-04-21T08:05:56;11.00;72.70
76293;DHT22;67256;51.154;4.164;2023-04-21T08:08:21;10.90;71.90
76293;DHT22;67256;51.154;4.164;2023-04-21T08:10:47;10.70;73.20
76293;DHT22;67256;51.154;4.164;2023-04-21T08:13:13;10.80;73.80
76293;DHT22;67256;51.154;4.164;2023-04-21T08:15:39;10.90;71.60
76293;DHT22;67256;51.154;4.164;2023-04-21T08:18:05;10.90;71.60
76293;DHT22;67256;51.154;4.164;2023-04-21T08:20:31;11.00;71.10
76293;DHT22;67256;51.154;4.164;2023-04-21T08:22:57;11.00;70.90
76293;DHT22;67256;51.154;4.164;2023-04-21T08:25:23;11.00;70.40
76293;DHT22;67256;51.154;4.164;2023-04-21T08:27:48;11.10;70.40
76293;DHT22;67256;51.154;4.164;2023-04-21T08:30:14;11.00;70.30
76293;DHT22;67256;51.154;4.164;2023-04-21T08:32:40;11.00;70.00
76293;DHT22;67256;51.154;4.164;2023-04-21T08:35:06;11.00;70.00
76293;DHT22;67256;51.154;4.164;2023-04-21T08:37:32;10.90;69.60
76293;DHT22;67256;51.154;4.164;2023-04-21T08:40:00;11.00;70.00
76293;DHT22;67256;51.154;4.164;2023-04-21T08:42:25;11.10;69.50
76293;DHT22;67256;51.154;4.164;2023-04-21T08:44:51;11.00;69.50
76293;DHT22;67256;51.154;4.164;2023-04-21T08:47:17;11.10;69.20
76293;DHT22;67256;51.154;4.164;2023-04-21T08:49:45;11.10;69.00
76293;DHT22;67256;51.154;4.164;2023-04-21T08:52:12;11.00;69.20
76293;DHT22;67256;51.154;4.164;2023-04-21T08:54:39;11.10;69.00
76293;DHT22;67256;51.154;4.164;2023-04-21T08:57:06;11.10;69.10
76293;DHT22;67256;51.154;4.164;2023-04-21T08:59:32;11.30;69.10
76293;DHT22;67256;51.154;4.164;2023-04-21T09:02:11;11.40;68.40
76293;DHT22;67256;51.154;4.164;2023-04-21T09:04:37;11.40;68.30
76293;DHT22;67256;51.154;4.164;2023-04-21T09:07:04;11.50;67.10
76293;DHT22;67256;51.154;4.164;2023-04-21T09:09:30;11.50;67.80
76293;DHT22;67256;51.154;4.164;2023-04-21T09:11:56;11.50;68.20
76293;DHT22;67256;51.154;4.164;2023-04-21T09:14:32;11.60;67.60
76293;DHT22;67256;51.154;4.164;2023-04-21T09:17:02;11.60;67.40
76293;DHT22;67256;51.154;4.164;2023-04-21T09:19:29;11.60;67.10
76293;DHT22;67256;51.154;4.164;2023-04-21T09:21:59;11.70;67.00
76293;DHT22;67256;51.154;4.164;2023-04-21T09:24:25;11.70;66.30
76293;DHT22;67256;51.154;4.164;2023-04-21T09:26:52;11.70;66.20
76293;DHT22;67256;51.154;4.164;2023-04-21T09:29:24;11.80;66.90
76293;DHT22;67256;51.154;4.164;2023-04-21T09:31:51;11.80;66.80
76293;DHT22;67256;51.154;4.164;2023-04-21T09:34:21;11.90;66.40
76293;DHT22;67256;51.154;4.164;2023-04-21T09:37:03;12.00;65.80
76293;DHT22;67256;51.154;4.164;2023-04-21T09:39:30;12.10;65.00
76293;DHT22;67256;51.154;4.164;2023-04-21T09:41:57;12.10;63.80
76293;DHT22;67256;51.154;4.164;2023-04-21T09:44:24;12.10;63.60
76293;DHT22;67256;51.154;4.164;2023-04-21T09:46:53;12.00;63.20
76293;DHT22;67256;51.154;4.164;2023-04-21T09:49:22;12.00;63.50
76293;DHT22;67256;51.154;4.164;2023-04-21T09:51:49;11.90;63.10
76293;DHT22;67256;51.154;4.164;2023-04-21T09:54:17;11.90;62.70
76293;DHT22;67256;51.154;4.164;2023-04-21T09:56:48;12.00;62.70
76293;DHT22;67256;51.154;4.164;2023-04-21T09:59:18;12.10;62.10
76293;DHT22;67256;51.154;4.164;2023-04-21T10:01:47;12.10;62.60
76293;DHT22;67256;51.154;4.164;2023-04-21T10:04:13;12.20;62.30
76293;DHT22;67256;51.154;4.164;2023-04-21T10:06:39;12.20;63.70
76293;DHT22;67256;51.154;4.164;2023-04-21T10:09:07;12.30;63.40
76293;DHT22;67256;51.154;4.164;2023-04-21T10:11:34;12.30;64.00
76293;DHT22;67256;51.154;4.164;2023-04-21T10:14:02;12.40;63.50
76293;DHT22;67256;51.154;4.164;2023-04-21T10:16:27;12.30;62.50
76293;DHT22;67256;51.154;4.164;2023-04-21T10:18:54;12.20;62.20
76293;DHT22;67256;51.154;4.164;2023-04-21T10:21:20;12.20;62.90
76293;DHT22;67256;51.154;4.164;2023-04-21T10:23:47;12.30;61.80
76293;DHT22;67256;51.154;4.164;2023-04-21T10:26:22;12.40;62.10
76293;DHT22;67256;51.154;4.164;2023-04-21T10:29:03;12.40;61.90
76293;DHT22;67256;51.154;4.164;2023-04-21T10:31:37;12.40;60.90
76293;DHT22;67256;51.154;4.164;2023-04-21T10:34:14;12.40;59.00
76293;DHT22;67256;51.154;4.164;2023-04-21T10:39:27;12.40;59.10
76293;DHT22;67256;51.154;4.164;2023-04-21T10:41:57;12.40;59.80
76293;DHT22;67256;51.154;4.164;2023-04-21T10:44:24;12.30;60.10
76293;DHT22;67256;51.154;4.164;2023-04-21T10:46:51;12.30;61.20
76293;DHT22;67256;51.154;4.164;2023-04-21T10:49:21;12.40;60.10
76293;DHT22;67256;51.154;4.164;2023-04-21T10:54:23;12.40;59.40
76293;DHT22;67256;51.154;4.164;2023-04-21T10:56:57;12.30;59.00
76293;DHT22;67256;51.154;4.164;2023-04-21T10:59:24;12.40;60.50
76293;DHT22;67256;51.154;4.164;2023-04-21T11:01:50;12.40;58.80
76293;DHT22;67256;51.154;4.164;2023-04-21T11:04:18;12.50;57.40
76293;DHT22;67256;51.154;4.164;2023-04-21T11:07:12;12.50;58.00
76293;DHT22;67256;51.154;4.164;2023-04-21T11:09:40;12.70;58.80
76293;DHT22;67256;51.154;4.164;2023-04-21T11:12:10;12.60;57.70
76293;DHT22;67256;51.154;4.164;2023-04-21T11:14:37;12.70;57.30
76293;DHT22;67256;51.154;4.164;2023-04-21T11:17:04;12.80;54.50
76293;DHT22;67256;51.154;4.164;2023-04-21T11:19:35;12.70;53.60
76293;DHT22;67256;51.154;4.164;2023-04-21T11:22:02;12.70;52.90
76293;DHT22;67256;51.154;4.164;2023-04-21T11:24:28;12.80;54.40
76293;DHT22;67256;51.154;4.164;2023-04-21T11:26:53;12.90;54.20
76293;DHT22;67256;51.154;4.164;2023-04-21T11:29:19;13.10;55.30
76293;DHT22;67256;51.154;4.164;2023-04-21T11:31:45;13.10;53.70
76293;DHT22;67256;51.154;4.164;2023-04-21T11:34:13;13.20;54.20
76293;DHT22;67256;51.154;4.164;2023-04-21T11:36:44;13.10;56.00
76293;DHT22;67256;51.154;4.164;2023-04-21T11:39:13;13.10;55.60
76293;DHT22;67256;51.154;4.164;2023-04-21T11:41:44;13.20;55.00
76293;DHT22;67256;51.154;4.164;2023-04-21T11:44:11;13.20;56.20
76293;DHT22;67256;51.154;4.164;2023-04-21T11:46:43;13.30;55.50
76293;DHT22;67256;51.154;4.164;2023-04-21T11:49:14;13.00;53.80
76293;DHT22;67256;51.154;4.164;2023-04-21T11:51:42;12.90;54.60
76293;DHT22;67256;51.154;4.164;2023-04-21T11:54:10;13.00;54.60
76293;DHT22;67256;51.154;4.164;2023-04-21T11:56:41;13.10;54.80
76293;DHT22;67256;51.154;4.164;2023-04-21T11:59:12;13.20;54.10
76293;DHT22;67256;51.154;4.164;2023-04-21T12:04:13;13.50;53.90
76293;DHT22;67256;51.154;4.164;2023-04-21T12:06:40;13.60;53.30
76293;DHT22;67256;51.154;4.164;2023-04-21T12:09:06;13.60;52.80
76293;DHT22;67256;51.154;4.164;2023-04-21T12:11:33;13.90;52.20
76293;DHT22;67256;51.154;4.164;2023-04-21T12:13:59;14.00;51.50
76293;DHT22;67256;51.154;4.164;2023-04-21T12:16:27;14.00;50.90
76293;DHT22;67256;51.154;4.164;2023-04-21T12:18:54;13.90;52.20
76293;DHT22;67256;51.154;4.164;2023-04-21T12:21:20;13.80;52.30
76293;DHT22;67256;51.154;4.164;2023-04-21T12:23:45;13.80;54.00
76293;DHT22;67256;51.154;4.164;2023-04-21T12:26:11;14.00;54.80
76293;DHT22;67256;51.154;4.164;2023-04-21T12:28:38;14.30;54.80
76293;DHT22;67256;51.154;4.164;2023-04-21T12:31:04;14.20;54.40
76293;DHT22;67256;51.154;4.164;2023-04-21T12:33:30;14.20;54.30
76293;DHT22;67256;51.154;4.164;2023-04-21T12:35:56;14.20;53.50
76293;DHT22;67256;51.154;4.164;2023-04-21T12:38:21;14.20;52.50
76293;DHT22;67256;51.154;4.164;2023-04-21T12:40:47;14.10;50.30
76293;DHT22;67256;51.154;4.164;2023-04-21T12:43:13;13.90;51.10
76293;DHT22;67256;51.154;4.164;2023-04-21T12:45:39;14.00;51.30
76293;DHT22;67256;51.154;4.164;2023-04-21T12:48:05;14.20;50.70
76293;DHT22;67256;51.154;4.164;2023-04-21T12:50:31;14.30;51.30
76293;DHT22;67256;51.154;4.164;2023-04-21T12:52:57;14.40;52.00
76293;DHT22;67256;51.154;4.164;2023-04-21T12:55:23;14.40;51.60
76293;DHT22;67256;51.154;4.164;2023-04-21T12:57:49;14.10;52.60
76293;DHT22;67256;51.154;4.164;2023-04-21T13:00:16;14.00;53.20
76293;DHT22;67256;51.154;4.164;2023-04-21T13:02:42;14.10;53.20
76293;DHT22;67256;51.154;4.164;2023-04-21T13:05:08;14.40;53.80
76293;DHT22;67256;51.154;4.164;2023-04-21T13:07:35;14.30;52.90
76293;DHT22;67256;51.154;4.164;2023-04-21T13:10:02;14.40;53.90
76293;DHT22;67256;51.154;4.164;2023-04-21T13:12:33;14.40;53.40
76293;DHT22;67256;51.154;4.164;2023-04-21T13:14:59;14.30;51.90
76293;DHT22;67256;51.154;4.164;2023-04-21T13:17:25;14.40;51.00
76293;DHT22;67256;51.154;4.164;2023-04-21T13:19:50;14.40;50.20
76293;DHT22;67256;51.154;4.164;2023-04-21T13:22:16;14.50;50.40
76293;DHT22;67256;51.154;4.164;2023-04-21T13:24:42;14.60;51.80
76293;DHT22;67256;51.154;4.164;2023-04-21T13:27:07;14.70;49.60
76293;DHT22;67256;51.154;4.164;2023-04-21T13:29:33;14.80;49.50
76293;DHT22;67256;51.154;4.164;2023-04-21T13:32:04;14.80;48.00
76293;DHT22;67256;51.154;4.164;2023-04-21T13:34:31;14.70;47.60
76293;DHT22;67256;51.154;4.164;2023-04-21T13:36:58;14.80;48.00
76293;DHT22;67256;51.154;4.164;2023-04-21T13:39:24;14.80;48.30
76293;DHT22;67256;51.154;4.164;2023-04-21T13:41:51;14.80;48.00
76293;DHT22;67256;51.154;4.164;2023-04-21T13:44:18;14.90;47.80
76293;DHT22;67256;51.154;4.164;2023-04-21T13:46:45;14.90;47.00
76293;DHT22;67256;51.154;4.164;2023-04-21T13:49:12;14.90;47.30
76293;DHT22;67256;51.154;4.164;2023-04-21T13:51:37;14.90;46.80
76293;DHT22;67256;51.154;4.164;2023-04-21T13:54:03;15.10;47.00
76293;DHT22;67256;51.154;4.164;2023-04-21T13:56:30;15.30;46.20
76293;DHT22;67256;51.154;4.164;2023-04-21T13:58:55;15.40;44.50
76293;DHT22;67256;51.154;4.164;2023-04-21T14:01:22;15.40;44.80
76293;DHT22;67256;51.154;4.164;2023-04-21T14:03:47;15.50;44.60
76293;DHT22;67256;51.154;4.164;2023-04-21T14:06:13;15.70;45.30
76293;DHT22;67256;51.154;4.164;2023-04-21T14:08:39;15.90;44.90
76293;DHT22;67256;51.154;4.164;2023-04-21T14:11:05;15.50;45.00
76293;DHT22;67256;51.154;4.164;2023-04-21T14:13:31;15.20;45.60
76293;DHT22;67256;51.154;4.164;2023-04-21T14:15:57;15.10;45.80
76293;DHT22;67256;51.154;4.164;2023-04-21T14:18:23;15.00;46.10
76293;DHT22;67256;51.154;4.164;2023-04-21T14:20:49;15.20;45.70
76293;DHT22;67256;51.154;4.164;2023-04-21T14:23:15;15.60;45.20
76293;DHT22;67256;51.154;4.164;2023-04-21T14:25:41;15.80;44.90
76293;DHT22;67256;51.154;4.164;2023-04-21T14:28:06;16.00;45.10
76293;DHT22;67256;51.154;4.164;2023-04-21T14:30:35;16.00;44.40
76293;DHT22;67256;51.154;4.164;2023-04-21T14:33:02;16.10;43.40
76293;DHT22;67256;51.154;4.164;2023-04-21T14:35:28;15.90;43.80
76293;DHT22;67256;51.154;4.164;2023-04-21T14:37:54;15.60;43.60
76293;DHT22;67256;51.154;4.164;2023-04-21T14:40:19;15.80;43.30
76293;DHT22;67256;51.154;4.164;2023-04-21T14:42:45;15.90;43.00
76293;DHT22;67256;51.154;4.164;2023-04-21T14:45:11;16.00;43.00
76293;DHT22;67256;51.154;4.164;2023-04-21T14:47:37;16.10;42.70
76293;DHT22;67256;51.154;4.164;2023-04-21T14:50:03;16.10;42.80
76293;DHT22;67256;51.154;4.164;2023-04-21T14:52:30;16.10;43.50
76293;DHT22;67256;51.154;4.164;2023-04-21T14:54:55;16.10;43.90
76293;DHT22;67256;51.154;4.164;2023-04-21T14:57:21;16.10;43.00
76293;DHT22;67256;51.154;4.164;2023-04-21T14:59:52;16.00;42.90
76293;DHT22;67256;51.154;4.164;2023-04-21T15:02:19;16.10;42.20
76293;DHT22;67256;51.154;4.164;2023-04-21T15:04:45;16.30;41.40
76293;DHT22;67256;51.154;4.164;2023-04-21T15:07:11;16.10;42.80
76293;DHT22;67256;51.154;4.164;2023-04-21T15:09:37;16.10;42.80
76293;DHT22;67256;51.154;4.164;2023-04-21T15:12:10;16.10;42.80
76293;DHT22;67256;51.154;4.164;2023-04-21T15:14:38;16.10;44.20
76293;DHT22;67256;51.154;4.164;2023-04-21T15:17:04;16.30;43.30
76293;DHT22;67256;51.154;4.164;2023-04-21T15:19:30;16.40;43.80
76293;DHT22;67256;51.154;4.164;2023-04-21T15:21:56;16.30;44.60
76293;DHT22;67256;51.154;4.164;2023-04-21T15:24:22;16.30;44.80
76293;DHT22;67256;51.154;4.164;2023-04-21T15:26:48;16.10;42.70
76293;DHT22;67256;51.154;4.164;2023-04-21T15:29:13;16.10;43.30
76293;DHT22;67256;51.154;4.164;2023-04-21T15:31:39;16.00;43.30
76293;DHT22;67256;51.154;4.164;2023-04-21T15:34:05;15.90;43.80
76293;DHT22;67256;51.154;4.164;2023-04-21T15:36:30;15.90;44.60